Abraham Lincoln Capital Airport Springfield US
ICAO: KSPI
IATA: SPI
Category: Large
Scheduled Services: Yes

Elevation: 598 ft
TransAlt. 18000 ft.

Airport Communications:
SPRINGFIELD APP/DEP:118.6
ATIS:127.65
CLNC DEL:121.7
CTAF:121.3
GND:121.9
ANG OPS:27.217
ST LOUIS RDO:122.25
SPRINGFIELD TWR:121.3
UNICOM:131.42

KSPI Zoom In..

Runways:

(A) RW 04 length 8001 ft width 150 ft
ILS 109.50 / hdg 43

(B) RW 13 length 7400 ft width 150 ft
---- / hdg 128

(C) RW 18 length 5300 ft width 150 ft
---- / hdg 182

(D) RW 22 length 8001 ft width 150 ft
ILS 111.70 / hdg 223

(E) RW 31 length 7400 ft width 150 ft
ILS 110.15 / hdg 308

(F) RW 36 length 5300 ft width 150 ft
---- / hdg 2

Location; KSPI
Day. 29 / Time. 08.52 Zulu
* Altimeter: 29.94
* Temperature: 18° c. 64.4°f.
* Wind from: 350° Speed 04 kn.
Dewpoint: 16° c.
Visibility: 10 Statute Miles.
Clouds: Overcast 6000 ft.
Conditions: Light Rain.

KSPI 290852Z AUTO 35004KT 10SM -RA OVC060 18/16 A2994 RMK AO2 SLP133 P0002 60002 T01780161 50004


Wind From 350°
Speed 04 kn.

 
 
jpsmedia worldairports.se 2020   terms of use